sensor_id;sensor_type;location;lat;lon;timestamp;pressure;altitude;pressure_sealevel;temperature;humidity
44138;BME280;29800;55.942;37.314;2022-10-16T00:01:12;100652.56;;;8.01;54.57
44138;BME280;29800;55.942;37.314;2022-10-16T00:03:39;100655.50;;;7.93;54.29
44138;BME280;29800;55.942;37.314;2022-10-16T00:06:07;100659.69;;;7.82;54.67
44138;BME280;29800;55.942;37.314;2022-10-16T00:08:33;100665.34;;;7.87;55.01
44138;BME280;29800;55.942;37.314;2022-10-16T00:11:03;100663.47;;;7.87;55.00
44138;BME280;29800;55.942;37.314;2022-10-16T00:13:31;100668.72;;;7.82;55.00
44138;BME280;29800;55.942;37.314;2022-10-16T00:15:58;100661.78;;;7.80;54.71
44138;BME280;29800;55.942;37.314;2022-10-16T00:18:25;100658.84;;;7.75;54.45
44138;BME280;29800;55.942;37.314;2022-10-16T00:20:51;100670.56;;;7.75;54.47
44138;BME280;29800;55.942;37.314;2022-10-16T00:23:36;100676.84;;;7.69;55.22
44138;BME280;29800;55.942;37.314;2022-10-16T00:26:15;100678.53;;;7.83;54.56
44138;BME280;29800;55.942;37.314;2022-10-16T00:28:42;100675.00;;;7.69;54.58
44138;BME280;29800;55.942;37.314;2022-10-16T00:31:12;100672.28;;;7.76;55.04
44138;BME280;29800;55.942;37.314;2022-10-16T00:33:39;100673.94;;;7.77;54.62
44138;BME280;29800;55.942;37.314;2022-10-16T00:36:06;100672.47;;;7.68;55.27
44138;BME280;29800;55.942;37.314;2022-10-16T00:38:33;100678.13;;;7.66;55.25
44138;BME280;29800;55.942;37.314;2022-10-16T00:40:59;100675.81;;;7.70;54.77
44138;BME280;29800;55.942;37.314;2022-10-16T00:43:46;100680.44;;;7.76;54.34
44138;BME280;29800;55.942;37.314;2022-10-16T00:48:57;100690.47;;;7.62;55.16
44138;BME280;29800;55.942;37.314;2022-10-16T00:51:31;100696.78;;;7.63;55.24
44138;BME280;29800;55.942;37.314;2022-10-16T00:53:59;100696.13;;;7.61;55.22
44138;BME280;29800;55.942;37.314;2022-10-16T00:56:25;100691.94;;;7.58;55.15
44138;BME280;29800;55.942;37.314;2022-10-16T00:58:52;100692.16;;;7.57;54.78
44138;BME280;29800;55.942;37.314;2022-10-16T01:01:18;100691.53;;;7.61;55.32
44138;BME280;29800;55.942;37.314;2022-10-16T01:03:44;100692.38;;;7.62;55.33
44138;BME280;29800;55.942;37.314;2022-10-16T01:06:28;100684.19;;;7.75;55.90
44138;BME280;29800;55.942;37.314;2022-10-16T01:09:13;100685.28;;;7.67;54.93
44138;BME280;29800;55.942;37.314;2022-10-16T01:14:53;100695.50;;;7.65;55.31
44138;BME280;29800;55.942;37.314;2022-10-16T01:17:30;100699.50;;;7.49;55.38
44138;BME280;29800;55.942;37.314;2022-10-16T01:22:59;100701.97;;;7.51;55.18
44138;BME280;29800;55.942;37.314;2022-10-16T01:28:00;100696.50;;;7.31;54.75
44138;BME280;29800;55.942;37.314;2022-10-16T01:30:30;100705.72;;;7.30;55.64
44138;BME280;29800;55.942;37.314;2022-10-16T01:33:06;100701.13;;;7.37;55.17
44138;BME280;29800;55.942;37.314;2022-10-16T01:35:45;100701.97;;;7.38;55.28
44138;BME280;29800;55.942;37.314;2022-10-16T01:38:20;100700.50;;;7.35;55.29
44138;BME280;29800;55.942;37.314;2022-10-16T01:40:52;100707.38;;;7.24;55.40
44138;BME280;29800;55.942;37.314;2022-10-16T01:43:27;100699.00;;;7.26;55.82
44138;BME280;29800;55.942;37.314;2022-10-16T01:45:55;100704.22;;;7.21;55.12
44138;BME280;29800;55.942;37.314;2022-10-16T01:48:21;100705.44;;;7.18;55.47
44138;BME280;29800;55.942;37.314;2022-10-16T01:50:56;100707.34;;;7.17;55.72
44138;BME280;29800;55.942;37.314;2022-10-16T01:53:25;100709.22;;;7.10;55.61
44138;BME280;29800;55.942;37.314;2022-10-16T01:55:52;100706.09;;;7.13;55.58
44138;BME280;29800;55.942;37.314;2022-10-16T01:58:21;100705.88;;;7.15;55.39
44138;BME280;29800;55.942;37.314;2022-10-16T02:00:48;100701.91;;;7.17;55.79
44138;BME280;29800;55.942;37.314;2022-10-16T02:03:17;100705.25;;;7.20;55.62
44138;BME280;29800;55.942;37.314;2022-10-16T02:05:55;100697.56;;;7.30;55.39
44138;BME280;29800;55.942;37.314;2022-10-16T02:08:24;100702.94;;;7.16;55.13
44138;BME280;29800;55.942;37.314;2022-10-16T02:10:51;100706.91;;;7.14;55.92
44138;BME280;29800;55.942;37.314;2022-10-16T02:16:08;100707.75;;;7.14;55.39
44138;BME280;29800;55.942;37.314;2022-10-16T02:18:35;100704.59;;;7.11;55.59
44138;BME280;29800;55.942;37.314;2022-10-16T02:22:04;100714.47;;;7.18;55.76
44138;BME280;29800;55.942;37.314;2022-10-16T02:24:24;100710.25;;;7.09;55.83
44138;BME280;29800;55.942;37.314;2022-10-16T02:27:11;100710.25;;;7.09;55.63
44138;BME280;29800;55.942;37.314;2022-10-16T02:29:42;100719.19;;;6.96;55.38
44138;BME280;29800;55.942;37.314;2022-10-16T02:32:16;100724.88;;;7.02;56.11
44138;BME280;29800;55.942;37.314;2022-10-16T02:34:44;100716.47;;;6.96;56.01
44138;BME280;29800;55.942;37.314;2022-10-16T02:37:11;100722.34;;;7.00;55.55
44138;BME280;29800;55.942;37.314;2022-10-16T02:39:39;100720.47;;;6.94;55.95
44138;BME280;29800;55.942;37.314;2022-10-16T02:42:17;100718.34;;;6.89;55.90
44138;BME280;29800;55.942;37.314;2022-10-16T02:44:43;100721.81;;;6.76;56.15
44138;BME280;29800;55.942;37.314;2022-10-16T02:47:09;100723.91;;;6.74;55.99
44138;BME280;29800;55.942;37.314;2022-10-16T02:49:35;100723.72;;;6.76;56.54
44138;BME280;29800;55.942;37.314;2022-10-16T02:52:01;100722.69;;;6.84;56.36
44138;BME280;29800;55.942;37.314;2022-10-16T02:54:28;100721.03;;;6.83;56.30
44138;BME280;29800;55.942;37.314;2022-10-16T02:56:53;100734.41;;;6.77;56.04
44138;BME280;29800;55.942;37.314;2022-10-16T02:59:20;100725.59;;;6.82;55.97
44138;BME280;29800;55.942;37.314;2022-10-16T03:01:45;100729.19;;;6.83;56.22
44138;BME280;29800;55.942;37.314;2022-10-16T03:04:12;100727.28;;;6.76;55.95
44138;BME280;29800;55.942;37.314;2022-10-16T03:06:38;100730.00;;;6.76;56.63
44138;BME280;29800;55.942;37.314;2022-10-16T03:09:03;100725.56;;;6.75;56.13
44138;BME280;29800;55.942;37.314;2022-10-16T03:11:29;100723.06;;;6.74;56.27
44138;BME280;29800;55.942;37.314;2022-10-16T03:13:55;100726.44;;;6.76;56.53
44138;BME280;29800;55.942;37.314;2022-10-16T03:16:22;100733.53;;;6.77;56.10
44138;BME280;29800;55.942;37.314;2022-10-16T03:18:49;100741.91;;;6.75;56.59
44138;BME280;29800;55.942;37.314;2022-10-16T03:21:15;100740.84;;;6.70;56.40
44138;BME280;29800;55.942;37.314;2022-10-16T03:23:42;100739.34;;;6.67;57.03
44138;BME280;29800;55.942;37.314;2022-10-16T03:26:08;100745.22;;;6.64;57.07
44138;BME280;29800;55.942;37.314;2022-10-16T03:28:34;100743.13;;;6.66;57.10
44138;BME280;29800;55.942;37.314;2022-10-16T03:31:00;100741.81;;;6.62;56.64
44138;BME280;29800;55.942;37.314;2022-10-16T03:33:26;100734.09;;;6.66;56.47
44138;BME280;29800;55.942;37.314;2022-10-16T03:35:53;100746.25;;;6.63;56.55
44138;BME280;29800;55.942;37.314;2022-10-16T03:38:20;100745.69;;;6.74;55.98
44138;BME280;29800;55.942;37.314;2022-10-16T03:40:47;100747.34;;;6.75;56.18
44138;BME280;29800;55.942;37.314;2022-10-16T03:43:13;100742.72;;;6.69;56.01
44138;BME280;29800;55.942;37.314;2022-10-16T03:45:39;100760.22;;;6.60;56.16
44138;BME280;29800;55.942;37.314;2022-10-16T03:48:05;100767.81;;;6.65;56.48
44138;BME280;29800;55.942;37.314;2022-10-16T03:50:31;100749.41;;;6.67;56.90
44138;BME280;29800;55.942;37.314;2022-10-16T03:52:57;100753.38;;;6.64;56.37
44138;BME280;29800;55.942;37.314;2022-10-16T03:55:23;100761.94;;;6.61;56.77
44138;BME280;29800;55.942;37.314;2022-10-16T03:57:49;100757.28;;;6.55;56.65
44138;BME280;29800;55.942;37.314;2022-10-16T04:00:15;100758.91;;;6.49;56.89
44138;BME280;29800;55.942;37.314;2022-10-16T04:02:42;100761.03;;;6.54;56.61
44138;BME280;29800;55.942;37.314;2022-10-16T04:05:08;100756.66;;;6.53;56.82
44138;BME280;29800;55.942;37.314;2022-10-16T04:07:34;100752.44;;;6.50;57.45
44138;BME280;29800;55.942;37.314;2022-10-16T04:10:00;100757.88;;;6.50;56.97
44138;BME280;29800;55.942;37.314;2022-10-16T04:12:26;100755.53;;;6.47;57.21
44138;BME280;29800;55.942;37.314;2022-10-16T04:14:52;100759.31;;;6.46;57.03
44138;BME280;29800;55.942;37.314;2022-10-16T04:17:18;100757.66;;;6.52;56.76
44138;BME280;29800;55.942;37.314;2022-10-16T04:19:45;100758.31;;;6.54;56.45
44138;BME280;29800;55.942;37.314;2022-10-16T04:22:11;100761.94;;;6.61;57.38
44138;BME280;29800;55.942;37.314;2022-10-16T04:24:37;100759.81;;;6.56;57.11
44138;BME280;29800;55.942;37.314;2022-10-16T04:27:03;100762.56;;;6.63;56.62
44138;BME280;29800;55.942;37.314;2022-10-16T04:29:29;100765.44;;;6.55;56.74
44138;BME280;29800;55.942;37.314;2022-10-16T04:31:55;100762.97;;;6.60;57.00
44138;BME280;29800;55.942;37.314;2022-10-16T04:34:21;100769.81;;;6.56;57.11
44138;BME280;29800;55.942;37.314;2022-10-16T04:36:48;100771.13;;;6.60;56.97
44138;BME280;29800;55.942;37.314;2022-10-16T04:39:15;100770.09;;;6.61;56.68
44138;BME280;29800;55.942;37.314;2022-10-16T04:41:42;100763.38;;;6.63;56.99
44138;BME280;29800;55.942;37.314;2022-10-16T04:44:07;100767.81;;;6.65;57.39
44138;BME280;29800;55.942;37.314;2022-10-16T04:46:34;100769.47;;;6.66;57.12
44138;BME280;29800;55.942;37.314;2022-10-16T04:49:00;100771.19;;;6.73;56.87
44138;BME280;29800;55.942;37.314;2022-10-16T04:51:26;100771.59;;;6.70;56.54
44138;BME280;29800;55.942;37.314;2022-10-16T04:53:54;100777.47;;;6.74;56.78
44138;BME280;29800;55.942;37.314;2022-10-16T04:56:21;100771.59;;;6.70;56.45
44138;BME280;29800;55.942;37.314;2022-10-16T04:58:47;100782.09;;;6.73;57.41
44138;BME280;29800;55.942;37.314;2022-10-16T05:01:13;100779.38;;;6.73;56.71
44138;BME280;29800;55.942;37.314;2022-10-16T05:03:39;100780.41;;;6.72;56.62
44138;BME280;29800;55.942;37.314;2022-10-16T05:06:06;100784.59;;;6.75;57.57
44138;BME280;29800;55.942;37.314;2022-10-16T05:08:32;100783.19;;;6.79;56.28
44138;BME280;29800;55.942;37.314;2022-10-16T05:10:59;100776.09;;;6.85;57.43
44138;BME280;29800;55.942;37.314;2022-10-16T05:13:25;100773.59;;;6.90;57.00
44138;BME280;29800;55.942;37.314;2022-10-16T05:15:51;100767.13;;;6.91;56.44
44138;BME280;29800;55.942;37.314;2022-10-16T05:18:17;100778.69;;;6.99;56.61
44138;BME280;29800;55.942;37.314;2022-10-16T05:20:43;100775.97;;;6.99;55.92
44138;BME280;29800;55.942;37.314;2022-10-16T05:23:09;100775.34;;;7.04;56.85
44138;BME280;29800;55.942;37.314;2022-10-16T05:25:36;100774.75;;;7.09;56.78
44138;BME280;29800;55.942;37.314;2022-10-16T05:28:02;100782.72;;;7.10;57.15
44138;BME280;29800;55.942;37.314;2022-10-16T05:30:28;100778.50;;;7.08;55.88
44138;BME280;29800;55.942;37.314;2022-10-16T05:32:54;100778.09;;;7.11;57.09
44138;BME280;29800;55.942;37.314;2022-10-16T05:35:21;100786.72;;;7.14;56.21
44138;BME280;29800;55.942;37.314;2022-10-16T05:37:47;100790.97;;;7.24;57.17
44138;BME280;29800;55.942;37.314;2022-10-16T05:40:14;100787.03;;;7.33;57.21
44138;BME280;29800;55.942;37.314;2022-10-16T05:42:40;100788.69;;;7.34;55.89
44138;BME280;29800;55.942;37.314;2022-10-16T05:45:09;100785.59;;;7.50;56.08
44138;BME280;29800;55.942;37.314;2022-10-16T05:47:35;100788.34;;;7.57;56.89
44138;BME280;29800;55.942;37.314;2022-10-16T05:50:02;100793.19;;;7.62;56.60
44138;BME280;29800;55.942;37.314;2022-10-16T05:52:29;100794.69;;;7.64;56.69
44138;BME280;29800;55.942;37.314;2022-10-16T05:54:55;100797.59;;;7.63;55.82
44138;BME280;29800;55.942;37.314;2022-10-16T05:57:21;100794.69;;;7.64;56.76
44138;BME280;29800;55.942;37.314;2022-10-16T05:59:47;100804.31;;;7.67;56.04
44138;BME280;29800;55.942;37.314;2022-10-16T06:02:14;100799.94;;;7.72;55.18
44138;BME280;29800;55.942;37.314;2022-10-16T06:04:40;100798.50;;;7.90;55.96
44138;BME280;29800;55.942;37.314;2022-10-16T06:07:06;100797.25;;;7.93;55.38
44138;BME280;29800;55.942;37.314;2022-10-16T06:09:32;100789.25;;;7.71;55.24
44138;BME280;29800;55.942;37.314;2022-10-16T06:11:58;100793.34;;;7.47;56.13
44138;BME280;29800;55.942;37.314;2022-10-16T06:14:24;100794.88;;;7.14;57.25
44138;BME280;29800;55.942;37.314;2022-10-16T06:16:50;100800.41;;;6.93;57.49
44138;BME280;29800;55.942;37.314;2022-10-16T06:19:16;100800.09;;;6.74;58.47
44138;BME280;29800;55.942;37.314;2022-10-16T06:21:44;100800.00;;;6.61;59.07
44138;BME280;29800;55.942;37.314;2022-10-16T06:24:10;100799.75;;;6.56;60.19
44138;BME280;29800;55.942;37.314;2022-10-16T06:26:37;100807.66;;;6.51;59.71
44138;BME280;29800;55.942;37.314;2022-10-16T06:29:03;100806.78;;;6.43;60.79
44138;BME280;29800;55.942;37.314;2022-10-16T06:31:29;100809.88;;;6.40;60.91
44138;BME280;29800;55.942;37.314;2022-10-16T06:33:57;100811.97;;;6.38;60.99
44138;BME280;29800;55.942;37.314;2022-10-16T06:36:24;100816.56;;;6.38;60.78
44138;BME280;29800;55.942;37.314;2022-10-16T06:38:50;100814.88;;;6.37;61.37
44138;BME280;29800;55.942;37.314;2022-10-16T06:41:18;100815.31;;;6.40;61.48
44138;BME280;29800;55.942;37.314;2022-10-16T06:43:46;100809.25;;;6.38;61.73
44138;BME280;29800;55.942;37.314;2022-10-16T06:46:14;100816.34;;;6.39;61.57
44138;BME280;29800;55.942;37.314;2022-10-16T06:48:42;100814.94;;;6.43;61.97
44138;BME280;29800;55.942;37.314;2022-10-16T06:51:15;100814.78;;;6.52;61.86
44138;BME280;29800;55.942;37.314;2022-10-16T06:53:46;100815.03;;;6.57;61.04
44138;BME280;29800;55.942;37.314;2022-10-16T06:56:20;100819.69;;;6.63;61.64
44138;BME280;29800;55.942;37.314;2022-10-16T06:58:47;100818.50;;;6.72;62.12
44138;BME280;29800;55.942;37.314;2022-10-16T07:01:14;100821.09;;;6.80;61.68
44138;BME280;29800;55.942;37.314;2022-10-16T07:03:42;100820.25;;;6.87;62.14
44138;BME280;29800;55.942;37.314;2022-10-16T07:06:11;100816.34;;;6.96;61.22
44138;BME280;29800;55.942;37.314;2022-10-16T07:08:39;100811.59;;;7.05;60.80
44138;BME280;29800;55.942;37.314;2022-10-16T07:11:08;100814.56;;;7.16;60.44
44138;BME280;29800;55.942;37.314;2022-10-16T07:13:38;100807.94;;;7.26;60.85
44138;BME280;29800;55.942;37.314;2022-10-16T07:16:15;100815.31;;;7.39;59.22
44138;BME280;29800;55.942;37.314;2022-10-16T07:18:42;100805.94;;;7.48;60.72
44138;BME280;29800;55.942;37.314;2022-10-16T07:21:18;100808.06;;;7.59;60.39
44138;BME280;29800;55.942;37.314;2022-10-16T07:23:50;100810.38;;;7.69;58.81
44138;BME280;29800;55.942;37.314;2022-10-16T07:26:16;100813.59;;;7.79;59.63
44138;BME280;29800;55.942;37.314;2022-10-16T07:28:43;100810.06;;;7.92;59.45
44138;BME280;29800;55.942;37.314;2022-10-16T07:31:11;100815.72;;;8.04;59.24
44138;BME280;29800;55.942;37.314;2022-10-16T07:33:40;100816.78;;;8.16;57.95
44138;BME280;29800;55.942;37.314;2022-10-16T07:36:08;100820.78;;;8.34;57.75
44138;BME280;29800;55.942;37.314;2022-10-16T07:38:34;100813.91;;;8.51;57.10
44138;BME280;29800;55.942;37.314;2022-10-16T07:41:09;100817.88;;;8.69;57.68
44138;BME280;29800;55.942;37.314;2022-10-16T07:43:35;100820.13;;;8.98;57.25
44138;BME280;29800;55.942;37.314;2022-10-16T07:46:01;100816.25;;;9.33;56.13
44138;BME280;29800;55.942;37.314;2022-10-16T07:48:30;100816.28;;;9.78;55.36
44138;BME280;29800;55.942;37.314;2022-10-16T07:50:58;100811.22;;;10.14;53.28
44138;BME280;29800;55.942;37.314;2022-10-16T07:53:25;100809.53;;;10.44;52.02
44138;BME280;29800;55.942;37.314;2022-10-16T07:55:52;100808.06;;;10.67;51.29
44138;BME280;29800;55.942;37.314;2022-10-16T07:58:18;100816.72;;;10.89;50.76
44138;BME280;29800;55.942;37.314;2022-10-16T08:00:44;100805.84;;;11.19;49.70
44138;BME280;29800;55.942;37.314;2022-10-16T08:03:10;100811.22;;;11.63;50.06
44138;BME280;29800;55.942;37.314;2022-10-16T08:05:36;100807.91;;;11.91;49.16
44138;BME280;29800;55.942;37.314;2022-10-16T08:08:02;100814.78;;;12.12;47.65
44138;BME280;29800;55.942;37.314;2022-10-16T08:10:29;100807.28;;;12.20;46.82
44138;BME280;29800;55.942;37.314;2022-10-16T08:12:55;100813.75;;;12.25;46.81
44138;BME280;29800;55.942;37.314;2022-10-16T08:15:21;100808.84;;;12.27;46.67
44138;BME280;29800;55.942;37.314;2022-10-16T08:18:02;100800.06;;;12.49;46.27
44138;BME280;29800;55.942;37.314;2022-10-16T08:20:30;100793.97;;;12.71;46.14
44138;BME280;29800;55.942;37.314;2022-10-16T08:22:56;100794.34;;;12.98;45.37
44138;BME280;29800;55.942;37.314;2022-10-16T08:25:23;100793.94;;;13.18;44.70
44138;BME280;29800;55.942;37.314;2022-10-16T08:27:50;100786.50;;;13.30;43.69
44138;BME280;29800;55.942;37.314;2022-10-16T08:30:18;100791.28;;;13.47;43.82
44138;BME280;29800;55.942;37.314;2022-10-16T08:32:44;100789.47;;;13.52;42.95
44138;BME280;29800;55.942;37.314;2022-10-16T08:35:11;100793.19;;;13.46;42.72
44138;BME280;29800;55.942;37.314;2022-10-16T08:37:38;100786.28;;;13.44;43.15
44138;BME280;29800;55.942;37.314;2022-10-16T08:40:06;100789.47;;;13.52;43.17
44138;BME280;29800;55.942;37.314;2022-10-16T08:48:00;100790.56;;;14.26;41.58
44138;BME280;29800;55.942;37.314;2022-10-16T08:50:31;100786.22;;;14.30;41.81
44138;BME280;29800;55.942;37.314;2022-10-16T08:52:58;100779.94;;;14.34;41.43
44138;BME280;29800;55.942;37.314;2022-10-16T08:55:29;100787.13;;;14.52;41.26
44138;BME280;29800;55.942;37.314;2022-10-16T08:57:56;100786.31;;;14.52;40.31
44138;BME280;29800;55.942;37.314;2022-10-16T09:00:22;100781.28;;;14.49;40.51
44138;BME280;29800;55.942;37.314;2022-10-16T09:03:16;100785.16;;;14.48;40.66
44138;BME280;29800;55.942;37.314;2022-10-16T09:16:32;100782.53;;;14.07;41.51
44138;BME280;29800;55.942;37.314;2022-10-16T09:19:02;100784.25;;;13.96;40.99
44138;BME280;29800;55.942;37.314;2022-10-16T09:21:35;100781.06;;;13.88;40.21
44138;BME280;29800;55.942;37.314;2022-10-16T09:24:13;100764.25;;;13.72;40.61
44138;BME280;29800;55.942;37.314;2022-10-16T09:26:40;100770.94;;;13.48;41.23
44138;BME280;29800;55.942;37.314;2022-10-16T09:29:19;100774.06;;;13.39;41.66
44138;BME280;29800;55.942;37.314;2022-10-16T09:31:52;100770.03;;;13.30;43.20
44138;BME280;29800;55.942;37.314;2022-10-16T09:34:30;100759.75;;;13.26;42.30
44138;BME280;29800;55.942;37.314;2022-10-16T09:36:59;100766.44;;;13.18;42.46
44138;BME280;29800;55.942;37.314;2022-10-16T09:39:26;100769.81;;;13.08;41.51
44138;BME280;29800;55.942;37.314;2022-10-16T09:41:52;100759.53;;;13.03;41.96
44138;BME280;29800;55.942;37.314;2022-10-16T09:44:24;100761.94;;;13.00;42.45
44138;BME280;29800;55.942;37.314;2022-10-16T09:47:05;100764.13;;;12.86;42.26
44138;BME280;29800;55.942;37.314;2022-10-16T09:49:37;100756.72;;;12.75;42.52
44138;BME280;29800;55.942;37.314;2022-10-16T09:52:11;100757.31;;;12.65;43.15
44138;BME280;29800;55.942;37.314;2022-10-16T09:54:37;100749.31;;;12.63;42.46
44138;BME280;29800;55.942;37.314;2022-10-16T09:57:14;100751.22;;;12.75;42.87
44138;BME280;29800;55.942;37.314;2022-10-16T09:59:50;100751.09;;;12.81;43.08
44138;BME280;29800;55.942;37.314;2022-10-16T10:02:20;100748.47;;;12.75;42.95
44138;BME280;29800;55.942;37.314;2022-10-16T10:04:51;100749.31;;;12.63;42.38
44138;BME280;29800;55.942;37.314;2022-10-16T10:07:28;100751.84;;;12.65;43.63
44138;BME280;29800;55.942;37.314;2022-10-16T10:09:58;100746.00;;;12.61;43.30
44138;BME280;29800;55.942;37.314;2022-10-16T10:12:27;100747.53;;;12.57;43.75
44138;BME280;29800;55.942;37.314;2022-10-16T10:14:58;100740.50;;;12.61;43.75
44138;BME280;29800;55.942;37.314;2022-10-16T10:17:29;100734.63;;;12.69;43.70
44138;BME280;29800;55.942;37.314;2022-10-16T10:55:00;100723.16;;;12.61;43.66
44138;BME280;29800;55.942;37.314;2022-10-16T10:57:39;100725.81;;;12.67;43.00
44138;BME280;29800;55.942;37.314;2022-10-16T11:02:52;100731.03;;;12.69;44.05
44138;BME280;29800;55.942;37.314;2022-10-16T11:08:13;100729.28;;;12.63;43.46
44138;BME280;29800;55.942;37.314;2022-10-16T11:10:50;100728.41;;;12.62;43.29
44138;BME280;29800;55.942;37.314;2022-10-16T11:16:27;100723.78;;;12.63;43.78
44138;BME280;29800;55.942;37.314;2022-10-16T11:19:08;100716.81;;;12.72;43.15
44138;BME280;29800;55.942;37.314;2022-10-16T11:22:11;100713.84;;;12.85;44.00
44138;BME280;29800;55.942;37.314;2022-10-16T11:24:44;100718.34;;;12.92;43.33
44138;BME280;29800;55.942;37.314;2022-10-16T11:27:16;100719.91;;;12.99;43.03
44138;BME280;29800;55.942;37.314;2022-10-16T11:29:55;100725.94;;;13.13;42.81
44138;BME280;29800;55.942;37.314;2022-10-16T11:32:28;100727.47;;;13.21;42.19
44138;BME280;29800;55.942;37.314;2022-10-16T11:35:15;100720.66;;;13.35;43.09
44138;BME280;29800;55.942;37.314;2022-10-16T11:37:46;100717.78;;;13.30;41.88
44138;BME280;29800;55.942;37.314;2022-10-16T11:40:29;100720.53;;;13.30;42.35
44138;BME280;29800;55.942;37.314;2022-10-16T11:43:26;100716.22;;;13.34;42.35
44138;BME280;29800;55.942;37.314;2022-10-16T11:45:57;100717.44;;;13.27;42.45
44138;BME280;29800;55.942;37.314;2022-10-16T11:48:32;100720.91;;;13.22;42.53
44138;BME280;29800;55.942;37.314;2022-10-16T11:51:16;100716.84;;;13.24;42.16
44138;BME280;29800;55.942;37.314;2022-10-16T11:53:53;100712.56;;;13.17;41.97
44138;BME280;29800;55.942;37.314;2022-10-16T11:56:21;100715.69;;;13.09;43.03
44138;BME280;29800;55.942;37.314;2022-10-16T12:04:02;100721.19;;;13.09;43.14
44138;BME280;29800;55.942;37.314;2022-10-16T12:09:28;100704.09;;;13.06;42.76
44138;BME280;29800;55.942;37.314;2022-10-16T12:11:55;100705.91;;;13.01;42.91
44138;BME280;29800;55.942;37.314;2022-10-16T12:14:35;100700.28;;;13.08;42.57
44138;BME280;29800;55.942;37.314;2022-10-16T12:17:23;100702.34;;;13.00;43.22
44138;BME280;29800;55.942;37.314;2022-10-16T12:20:29;100700.63;;;13.11;43.15
44138;BME280;29800;55.942;37.314;2022-10-16T12:23:06;100703.75;;;13.03;43.62
44138;BME280;29800;55.942;37.314;2022-10-16T12:25:54;100695.75;;;13.01;43.24
44138;BME280;29800;55.942;37.314;2022-10-16T12:28:25;100704.22;;;13.00;42.92
44138;BME280;29800;55.942;37.314;2022-10-16T12:30:54;100699.59;;;13.00;43.00
44138;BME280;29800;55.942;37.314;2022-10-16T12:33:32;100698.59;;;13.06;43.12
44138;BME280;29800;55.942;37.314;2022-10-16T12:36:02;100695.75;;;13.01;43.31
44138;BME280;29800;55.942;37.314;2022-10-16T12:38:48;100690.59;;;13.05;43.25
44138;BME280;29800;55.942;37.314;2022-10-16T12:41:24;100691.16;;;13.19;42.56
44138;BME280;29800;55.942;37.314;2022-10-16T12:43:50;100691.59;;;12.99;42.94
44138;BME280;29800;55.942;37.314;2022-10-16T12:48:44;100683.59;;;12.97;43.60
44138;BME280;29800;55.942;37.314;2022-10-16T12:51:12;100688.59;;;13.00;42.48
44138;BME280;29800;55.942;37.314;2022-10-16T12:54:01;100688.47;;;13.07;42.32
44138;BME280;29800;55.942;37.314;2022-10-16T12:59:24;100688.09;;;13.03;42.44
44138;BME280;29800;55.942;37.314;2022-10-16T13:05:16;100698.97;;;12.98;42.72
44138;BME280;29800;55.942;37.314;2022-10-16T13:11:07;100693.72;;;12.97;43.47
44138;BME280;29800;55.942;37.314;2022-10-16T13:19:00;100700.22;;;12.79;43.68
44138;BME280;29800;55.942;37.314;2022-10-16T13:27:09;100693.91;;;12.66;43.76
44138;BME280;29800;55.942;37.314;2022-10-16T13:29:38;100687.72;;;12.59;43.42
44138;BME280;29800;55.942;37.314;2022-10-16T13:32:09;100691.19;;;12.55;44.03
44138;BME280;29800;55.942;37.314;2022-10-16T13:34:47;100685.69;;;12.55;44.01
44138;BME280;29800;55.942;37.314;2022-10-16T13:37:22;100687.72;;;12.47;44.15
44138;BME280;29800;55.942;37.314;2022-10-16T13:39:49;100693.56;;;12.39;43.97
44138;BME280;29800;55.942;37.314;2022-10-16T13:42:27;100694.44;;;12.40;43.89
44138;BME280;29800;55.942;37.314;2022-10-16T13:44:55;100696.78;;;12.24;44.36
44138;BME280;29800;55.942;37.314;2022-10-16T13:47:27;100698.59;;;12.19;44.55
44138;BME280;29800;55.942;37.314;2022-10-16T13:50:09;100698.47;;;12.13;44.77
44138;BME280;29800;55.942;37.314;2022-10-16T13:52:37;100692.34;;;12.00;45.01
44138;BME280;29800;55.942;37.314;2022-10-16T13:57:38;100688.97;;;11.86;45.46
44138;BME280;29800;55.942;37.314;2022-10-16T14:00:21;100691.47;;;11.87;45.61
44138;BME280;29800;55.942;37.314;2022-10-16T14:03:12;100684.41;;;11.80;46.51
44138;BME280;29800;55.942;37.314;2022-10-16T14:06:03;100682.38;;;11.75;46.41
44138;BME280;29800;55.942;37.314;2022-10-16T14:08:32;100686.84;;;11.57;46.44
44138;BME280;29800;55.942;37.314;2022-10-16T14:11:00;100695.41;;;11.49;47.13
44138;BME280;29800;55.942;37.314;2022-10-16T14:13:34;100691.00;;;11.48;46.85
44138;BME280;29800;55.942;37.314;2022-10-16T14:16:06;100683.72;;;11.42;47.19
44138;BME280;29800;55.942;37.314;2022-10-16T14:18:33;100687.59;;;11.34;47.36
44138;BME280;29800;55.942;37.314;2022-10-16T14:21:05;100696.06;;;11.33;47.17
44138;BME280;29800;55.942;37.314;2022-10-16T14:23:37;100690.31;;;11.22;47.58
44138;BME280;29800;55.942;37.314;2022-10-16T14:28:37;100698.69;;;11.09;47.95
44138;BME280;29800;55.942;37.314;2022-10-16T14:31:33;100695.97;;;11.09;48.05
44138;BME280;29800;55.942;37.314;2022-10-16T14:33:59;100695.53;;;10.94;48.47
44138;BME280;29800;55.942;37.314;2022-10-16T14:36:27;100690.97;;;10.88;48.59
44138;BME280;29800;55.942;37.314;2022-10-16T14:38:58;100691.88;;;10.81;48.57
44138;BME280;29800;55.942;37.314;2022-10-16T14:41:26;100695.38;;;10.70;49.09
44138;BME280;29800;55.942;37.314;2022-10-16T14:43:58;100697.50;;;10.68;49.26
44138;BME280;29800;55.942;37.314;2022-10-16T14:46:34;100693.53;;;10.64;49.28
44138;BME280;29800;55.942;37.314;2022-10-16T14:51:38;100703.88;;;10.43;50.27
44138;BME280;29800;55.942;37.314;2022-10-16T14:54:04;100699.72;;;10.34;50.64